Time;durP1;ratioP1;P1;durP2;ratioP2;P2;SDS_P1;SDS_P2;PMS_P1;PMS_P2;Temp;Humidity;BMP_temperature;BMP_pressure;BME280_temperature;BME280_humidity;BME280_pressure;Samples;Min_cycle;Max_cycle;Signal;HPM_P1;HPM_P2
2021/10/21 00:07:35;;;;;;;;;;;;;;;;;;;;;
2021/10/21 03:37:32;;;;;;;;;0.33;0.33;;;;;13.09;59.26;100104.66;4941163;28;46662;-82
2021/10/21 03:41:05;;;;;;;;;;;;;;;;;;;;;
2021/10/21 03:44:00;;;;;;;;;3.00;3.00;;;;;12.93;59.83;100151.72;4917876;28;72402;-83
2021/10/21 03:47:35;;;;;;;;;0.00;0.00;;;;;12.84;59.73;100184.50;4926733;28;45324;-83
2021/10/21 03:50:31;;;;;;;;;0.00;0.00;;;;;12.82;59.55;100214.50;4930184;28;45378;-82
2021/10/21 03:56:09;;;;;;;;;;;;;;;;;;;;;
2021/10/21 03:58:37;;;;;;;;;2.00;2.00;;;;;12.44;59.23;100214.38;4955242;28;68491;-83
2021/10/21 04:01:06;;;;;;;;;2.00;2.00;;;;;12.58;59.16;100264.25;4943070;28;45483;-83
2021/10/21 04:03:31;;;;;;;;;1.33;0.00;;;;;12.52;58.89;100273.19;4928989;28;47752;-86
2021/10/21 04:05:57;;;;;;;;;1.00;0.00;;;;;12.43;58.81;100260.16;4929919;28;45983;-85
2021/10/21 04:08:22;;;;;;;;;0.00;0.00;;;;;12.49;59.04;100294.38;4965438;28;45441;-87
2021/10/21 04:10:48;;;;;;;;;0.00;0.00;;;;;12.48;59.18;100321.69;4932252;28;45430;-84
2021/10/21 04:13:23;;;;;;;;;0.00;0.00;;;;;12.42;58.95;100295.38;4929067;28;47562;-86
2021/10/21 04:15:49;;;;;;;;;0.00;0.00;;;;;12.36;59.51;100296.34;4929598;28;45345;-87
2021/10/21 04:18:15;;;;;;;;;0.00;0.00;;;;;12.29;59.57;100291.22;4956479;28;44775;-87
2021/10/21 04:20:41;;;;;;;;;0.00;0.00;;;;;12.31;59.44;100292.06;4965989;28;45546;-87
2021/10/21 04:23:06;;;;;;;;;0.00;0.00;;;;;12.42;59.61;100312.97;4939700;28;48194;-87
2021/10/21 04:25:32;;;;;;;;;1.00;1.00;;;;;12.50;59.46;100340.97;4941505;28;45593;-85
2021/10/21 04:27:57;;;;;;;;;0.00;0.00;;;;;12.34;59.06;100307.84;4947138;28;45613;-87
2021/10/21 04:30:23;;;;;;;;;0.67;0.00;;;;;12.33;58.96;100317.53;4963851;28;45239;-88
2021/10/21 04:32:51;;;;;;;;;0.00;0.00;;;;;12.48;59.03;100342.81;4950953;28;46902;-87
2021/10/21 04:35:17;;;;;;;;;1.00;1.00;;;;;12.57;58.89;100354.97;4931570;28;45525;-86
2021/10/21 04:37:46;;;;;;;;;1.00;1.00;;;;;12.60;59.07;100369.88;4929161;28;45458;-87
2021/10/21 04:40:16;;;;;;;;;1.00;1.00;;;;;12.45;59.06;100355.16;4974230;28;45297;-88
2021/10/21 04:42:44;;;;;;;;;0.67;0.67;;;;;12.52;59.09;100378.81;4947035;28;48128;-89
2021/10/21 04:45:10;;;;;;;;;1.67;1.67;;;;;12.53;59.35;100385.81;4961012;28;45397;-86
2021/10/21 04:47:39;;;;;;;;;2.67;1.67;;;;;12.60;59.35;100404.22;4969390;28;45400;-91
2021/10/21 05:08:22;;;;;;;;;5.00;0.00;;;;;12.52;59.60;100465.94;4689909;30;45527;-89
2021/10/21 05:10:59;;;;;;;;;1.00;1.00;;;;;12.49;59.61;100458.06;4702602;30;45504;-90
2021/10/21 05:14:24;;;;;;;;;;;;;;;;;;;;;
2021/10/21 05:17:02;;;;;;;;;;;;;;;;;;;;;
2021/10/21 05:20:18;;;;;;;;;2.33;1.33;;;;;12.46;58.92;100468.69;4775869;29;76035;-90
2021/10/21 05:22:51;;;;;;;;;4.00;1.33;;;;;12.48;58.37;100495.03;4784197;29;44703;-90
2021/10/21 05:28:28;;;;;;;;;2.33;1.33;;;;;12.54;58.39;100503.75;4918033;28;45545;-90
2021/10/21 05:32:06;;;;;;;;;;;;;;;;;;;;;
2021/10/21 05:41:58;;;;;;;;;;;;;;;;;;;;;
2021/10/21 05:44:52;;;;;;;;;;;;;;;;;;;;;
2021/10/21 05:47:36;;;;;;;;;;;;;;;;;;;;;
2021/10/21 05:50:43;;;;;;;;;1.33;1.33;;;;;12.77;57.98;100539.47;4957085;28;69149;-90
2021/10/21 05:53:43;;;;;;;;;2.00;0.00;;;;;12.92;57.92;100570.09;4954116;28;45325;-90
2021/10/21 05:56:44;;;;;;;;;;;;;;;;;;;;;
2021/10/21 06:00:09;;;;;;;;;;;;;;;;;;;;;
2021/10/21 06:02:55;;;;;;;;;3.67;3.00;;;;;12.95;57.93;100572.66;4959755;28;44875;-90
2021/10/21 06:06:31;;;;;;;;;;;;;;;;;;;;;
2021/10/21 06:09:24;;;;;;;;;;;;;;;;;;;;;
2021/10/21 06:12:11;;;;;;;;;;;;;;;;;;;;;
2021/10/21 06:15:07;;;;;;;;;;;;;;;;;;;;;
2021/10/21 06:18:12;;;;;;;;;;;;;;;;;;;;;
2021/10/21 06:28:39;;;;;;;;;;;;;;;;;;;;;
2021/10/21 06:45:22;;;;;;;;;;;;;;;;;;;;;
2021/10/21 06:48:58;;;;;;;;;;;;;;;;;;;;;
2021/10/21 06:52:25;;;;;;;;;;;;;;;;;;;;;
2021/10/21 06:55:35;;;;;;;;;;;;;;;;;;;;;
2021/10/21 06:58:40;;;;;;;;;;;;;;;;;;;;;
2021/10/21 07:01:28;;;;;;;;;;;;;;;;;;;;;
2021/10/21 07:04:00;;;;;;;;;4.50;4.00;;;;;12.57;61.67;100633.09;4808576;29;71991;-89
2021/10/21 07:06:59;;;;;;;;;;;;;;;;;;;;;
2021/10/21 07:10:09;;;;;;;;;;;;;;;;;;;;;
2021/10/21 07:16:49;;;;;;;;;;;;;;;;;;;;;
2021/10/21 08:16:47;;;;;;;;;2.33;1.33;;;;;13.07;61.22;100765.41;5956459;23;47175;-87
2021/10/21 17:10:05;;;;;;;;;;;;;;;;;;;;;
2021/10/21 17:13:19;;;;;;;;;;;;;;;;;;;;;
2021/10/21 17:37:24;;;;;;;;;;;;;;;;;;;;;
2021/10/21 17:40:22;;;;;;;;;6.50;5.00;;;;;12.15;57.97;101244.19;4743195;29;73276;-87
2021/10/21 17:42:50;;;;;;;;;7.50;6.50;;;;;11.94;58.11;101224.00;4768728;29;47823;-86
2021/10/21 17:45:18;;;;;;;;;6.00;6.00;;;;;12.05;58.07;101259.16;4803113;29;45473;-87
2021/10/21 17:47:52;;;;;;;;;6.25;6.25;;;;;12.07;58.52;101265.31;4791581;29;45492;-86
2021/10/21 17:50:58;;;;;;;;;7.50;4.75;;;;;12.07;58.69;101267.09;4847010;29;45457;-87
2021/10/21 17:54:35;;;;;;;;;;;;;;;;;;;;;
2021/10/21 17:57:14;;;;;;;;;;;;;;;;;;;;;
2021/10/21 18:08:04;;;;;;;;;;;;;;;;;;;;;
2021/10/21 18:14:52;;;;;;;;;;;;;;;;;;;;;
2021/10/21 18:17:19;;;;;;;;;;;;;;;;;;;;;
2021/10/21 18:20:36;;;;;;;;;;;;;;;;;;;;;
2021/10/21 18:26:24;;;;;;;;;14.00;10.75;;;;;11.65;59.56;101329.47;4938347;28;45598;-87
2021/10/21 18:29:07;;;;;;;;;;;;;;;;;;;;;
2021/10/21 18:35:03;;;;;;;;;16.00;13.00;;;;;11.46;59.73;101337.34;4829862;29;45462;-86
2021/10/21 18:41:06;;;;;;;;;;;;;;;;;;;;;
2021/10/21 18:54:32;;;;;;;;;;;;;;;;;;;;;
2021/10/21 19:01:00;;;;;;;;;;;;;;;;;;;;;
2021/10/21 19:03:40;;;;;;;;;13.25;12.25;;;;;11.40;60.50;101424.34;4949390;28;69882;-86
2021/10/21 19:06:15;;;;;;;;;18.50;15.75;;;;;11.25;60.56;101408.47;4930124;28;45498;-85
2021/10/21 19:08:53;;;;;;;;;13.25;13.25;;;;;11.33;60.81;101441.00;4954351;28;46541;-85
2021/10/21 19:11:25;;;;;;;;;18.00;14.25;;;;;11.32;60.46;101435.75;4957386;28;45421;-86
2021/10/21 19:13:59;;;;;;;;;14.25;14.25;;;;;11.28;60.51;101440.13;4962101;28;45485;-86
2021/10/21 19:16:30;;;;;;;;;12.00;10.50;;;;;11.13;60.69;101419.84;4957405;28;45176;-84
2021/10/21 19:19:41;;;;;;;;;;;;;;;;;;;;;
2021/10/21 19:22:27;;;;;;;;;;;;;;;;;;;;;
2021/10/21 19:25:31;;;;;;;;;;;;;;;;;;;;;
2021/10/21 19:28:53;;;;;;;;;;;;;;;;;;;;;
2021/10/21 19:31:49;;;;;;;;;;;;;;;;;;;;;
2021/10/21 19:34:39;;;;;;;;;15.75;15.00;;;;;11.12;61.40;101459.34;4958113;28;70783;-86
2021/10/21 19:37:45;;;;;;;;;22.50;20.00;;;;;11.00;61.37;101442.59;4925293;28;45462;-86
2021/10/21 19:40:44;;;;;;;;;;;;;;;;;;;;;
2021/10/21 19:43:23;;;;;;;;;;;;;;;;;;;;;
2021/10/21 19:46:27;;;;;;;;;;;;;;;;;;;;;
2021/10/21 19:49:22;;;;;;;;;;;;;;;;;;;;;
2021/10/21 19:52:18;;;;;;;;;20.00;19.75;;;;;10.96;61.93;101482.09;4955162;28;71957;-86
2021/10/21 19:57:59;;;;;;;;;;;;;;;;;;;;;
2021/10/21 20:01:06;;;;;;;;;;;;;;;;;;;;;
2021/10/21 20:04:05;;;;;;;;;;;;;;;;;;;;;
2021/10/21 20:09:54;;;;;;;;;;;;;;;;;;;;;
2021/10/21 20:12:39;;;;;;;;;;;;;;;;;;;;;
2021/10/21 20:15:33;;;;;;;;;;;;;;;;;;;;;
2021/10/21 20:18:12;;;;;;;;;25.75;18.25;;;;;10.77;62.17;101510.06;4964559;28;74220;-86
2021/10/21 20:20:43;;;;;;;;;20.00;17.50;;;;;10.80;62.02;101531.19;4935137;28;45538;-85
2021/10/21 20:23:42;;;;;;;;;;;;;;;;;;;;;
2021/10/21 20:26:30;;;;;;;;;;;;;;;;;;;;;
2021/10/21 20:28:55;;;;;;;;;14.00;13.00;;;;;10.70;61.73;101532.84;4950342;28;75489;-85
2021/10/21 20:31:29;;;;;;;;;14.75;14.75;;;;;10.53;61.79;101500.19;4957488;28;45209;-85
2021/10/21 20:33:55;;;;;;;;;17.75;15.00;;;;;10.65;62.13;101524.03;4959392;28;45433;-86
2021/10/21 20:37:12;;;;;;;;;18.75;15.75;;;;;10.60;62.21;101523.09;4957178;28;45317;-86
2021/10/21 20:39:30;;;;;;;;;16.00;15.00;;;;;10.69;62.17;101549.53;4960870;28;46853;-85
2021/10/21 20:42:23;;;;;;;;;20.00;18.75;;;;;10.68;62.36;101560.03;4949067;28;45429;-85
2021/10/21 20:45:03;;;;;;;;;;;;;;;;;;;;;
2021/10/21 20:47:34;;;;;;;;;15.25;15.25;;;;;10.64;62.44;101567.03;4946625;28;71321;-85
2021/10/21 20:50:10;;;;;;;;;17.25;17.25;;;;;10.46;62.31;101543.16;4948863;28;45599;-84
2021/10/21 20:55:44;;;;;;;;;;;;;;;;;;;;;
2021/10/21 20:58:19;;;;;;;;;13.75;11.25;;;;;10.32;62.37;101553.56;4953325;28;72211;-84
2021/10/21 21:01:16;;;;;;;;;;;;;;;;;;;;;
2021/10/21 21:03:59;;;;;;;;;;;;;;;;;;;;;
2021/10/21 21:06:25;;;;;;;;;13.50;10.50;;;;;10.38;62.52;101582.56;4956827;28;68335;-87
2021/10/21 21:08:51;;;;;;;;;14.75;10.00;;;;;10.40;62.49;101600.97;4939783;28;45651;-84
2021/10/21 21:11:19;;;;;;;;;12.75;12.75;;;;;10.33;62.64;101590.41;4944602;28;47080;-85
2021/10/21 21:13:45;;;;;;;;;8.50;8.50;;;;;10.36;62.64;101602.72;4939828;28;45471;-85
2021/10/21 21:16:16;;;;;;;;;10.00;10.00;;;;;10.28;62.67;101592.09;4930673;28;45560;-88
2021/10/21 21:18:44;;;;;;;;;15.50;14.75;;;;;10.20;63.02;101588.47;4933336;28;45420;-86
2021/10/21 21:21:09;;;;;;;;;10.00;9.25;;;;;10.09;62.95;101569.03;4941082;28;48173;-85
2021/10/21 21:23:40;;;;;;;;;14.50;10.00;;;;;10.14;63.11;101583.13;4937873;28;45610;-86
2021/10/21 21:26:10;;;;;;;;;13.25;11.50;;;;;10.19;62.98;101586.72;4950621;28;45441;-86
2021/10/21 21:28:38;;;;;;;;;17.00;13.25;;;;;10.25;63.01;101605.19;4938770;28;45920;-85
2021/10/21 21:31:16;;;;;;;;;14.25;11.25;;;;;10.09;63.29;101585.72;4940811;28;48245;-86
2021/10/21 21:34:11;;;;;;;;;16.00;12.00;;;;;10.06;63.05;101588.31;4932743;28;44826;-87
2021/10/21 21:36:50;;;;;;;;;;;;;;;;;;;;;
2021/10/21 21:39:33;;;;;;;;;;;;;;;;;;;;;
2021/10/21 21:42:02;;;;;;;;;15.25;12.75;;;;;10.18;63.25;101624.38;4952405;28;75710;-86
2021/10/21 21:44:50;;;;;;;;;11.50;11.50;;;;;10.10;63.28;101605.00;4956489;28;45458;-86
2021/10/21 21:47:16;;;;;;;;;10.50;10.00;;;;;10.04;63.50;101607.56;4961149;28;45373;-86
2021/10/21 21:49:57;;;;;;;;;;;;;;;;;;;;;
2021/10/21 21:52:47;;;;;;;;;11.50;10.75;;;;;9.96;63.37;101604.84;4958849;28;74236;-86
2021/10/21 21:55:17;;;;;;;;;14.75;14.25;;;;;9.93;63.56;101599.53;4953000;28;45402;-87
2021/10/21 21:57:52;;;;;;;;;;;;;;;;;;;;;
2021/10/21 22:00:23;;;;;;;;;8.75;8.00;;;;;9.89;63.51;101588.09;4955702;28;73219;-85
2021/10/21 22:02:52;;;;;;;;;10.00;9.75;;;;;10.01;63.66;101604.91;4937177;28;47346;-87
2021/10/21 22:05:20;;;;;;;;;8.00;8.00;;;;;9.99;63.48;101620.66;4951158;28;45429;-86
2021/10/21 22:07:45;;;;;;;;;10.00;8.00;;;;;9.91;63.85;101607.41;4968037;28;45096;-86
2021/10/21 22:10:11;;;;;;;;;9.75;8.00;;;;;9.83;63.40;101601.16;4949792;28;45419;-88
2021/10/21 22:12:37;;;;;;;;;10.00;9.00;;;;;9.76;63.67;101594.06;4937723;28;46906;-85
2021/10/21 22:15:05;;;;;;;;;8.75;8.75;;;;;9.86;63.72;101600.31;4939429;28;45479;-85
2021/10/21 22:17:31;;;;;;;;;13.00;10.50;;;;;9.84;63.83;101612.59;4959569;28;45523;-86
2021/10/21 22:19:57;;;;;;;;;9.50;9.25;;;;;9.89;63.76;101629.28;4945146;28;46252;-87
2021/10/21 22:22:25;;;;;;;;;11.50;10.00;;;;;9.87;64.34;101624.03;4946008;28;46153;-86
2021/10/21 22:24:51;;;;;;;;;12.50;11.00;;;;;9.65;64.23;101590.38;4945005;28;45467;-86
2021/10/21 22:27:31;;;;;;;;;;;;;;;;;;;;;
2021/10/21 22:30:19;;;;;;;;;;;;;;;;;;;;;
2021/10/21 22:32:58;;;;;;;;;11.50;10.75;;;;;9.71;64.36;101632.56;4948965;28;75318;-85
2021/10/21 22:35:23;;;;;;;;;17.75;14.50;;;;;9.72;64.93;101642.22;4943538;28;45463;-86
2021/10/21 22:37:49;;;;;;;;;14.00;13.75;;;;;9.54;64.90;101624.41;4943136;28;45588;-85
2021/10/21 22:40:15;;;;;;;;;15.00;14.75;;;;;9.55;64.76;101634.09;4956410;28;45548;-86
2021/10/21 22:42:40;;;;;;;;;17.50;14.00;;;;;9.54;64.99;101634.06;4948485;28;47482;-85
2021/10/21 22:45:09;;;;;;;;;12.25;11.00;;;;;9.52;65.07;101641.94;4941028;28;45931;-86
2021/10/21 22:47:45;;;;;;;;;13.25;13.25;;;;;9.44;65.60;101625.16;4944363;28;45590;-85
2021/10/21 22:50:14;;;;;;;;;15.25;14.25;;;;;9.58;65.47;101649.03;4948011;28;45454;-85
2021/10/21 22:52:39;;;;;;;;;19.75;17.50;;;;;9.47;65.40;101633.97;4960327;28;45538;-86
2021/10/21 22:55:06;;;;;;;;;16.50;15.00;;;;;9.34;65.73;101613.63;4932630;28;45602;-86
2021/10/21 22:57:35;;;;;;;;;15.00;14.50;;;;;9.56;65.66;101651.59;4951484;28;45491;-87
2021/10/21 23:00:12;;;;;;;;;18.00;15.75;;;;;9.47;65.74;101643.59;4943824;28;45451;-84
2021/10/21 23:02:45;;;;;;;;;14.00;13.25;;;;;9.47;65.97;101633.97;4932063;28;47339;-86
2021/10/21 23:05:11;;;;;;;;;14.25;13.75;;;;;9.47;66.08;101643.59;4960559;28;45613;-85
2021/10/21 23:07:37;;;;;;;;;15.50;12.50;;;;;9.40;65.92;101634.72;4941677;28;45460;-86
